CheckWX is a tool to help pilots better visualize weather data.  It is not intended as a substitute for an official pre-flight weather briefing.

15:34:13 UTC

LFPV METAR
Villacoublay-Vélizy (BA 107) Air Base Airport
Villacoublay/Vélizy, France
Current

34 mins ago

LFPV 211500Z AUTO 23010KT 9999 BKN036 BKN240 09/02 Q1029 NOSIG
Observed
Feb-21 @ 15:00 UTC
Wind
  • 230° at 10 KTS
Visibility
10,000+ meters
Flight Rules
VFR
Cloud Levels
  • Broken at 3,600' AGL
  • Broken at 24,000' AGL
Temperature
C / 48°F
Dewpoint
C / 36°F
Humidity
62%
Altimeter
30.38" Hg
Pressure
1028.92 hPa
Previous

1 hour ago

LFPV 211430Z AUTO 24011KT 200V270 9999 BKN038 BKN240 09/02 Q1029 NOSIG
Observed
Feb-21 @ 14:30 UTC
Wind
  • 240° at 11 KTS
Visibility
10,000+ meters
Flight Rules
VFR
Cloud Levels
  • Broken at 3,800' AGL
  • Broken at 24,000' AGL
Temperature
C / 48°F
Dewpoint
C / 36°F
Humidity
62%
Altimeter
30.38" Hg
Pressure
1028.92 hPa
Previous

2 hours ago

LFPV 211400Z AUTO 24009KT 200V270 9999 BKN039 09/01 Q1030 NOSIG
Observed
Feb-21 @ 14:00 UTC
Wind
  • 240° at 9 KTS
Visibility
10,000+ meters
Flight Rules
VFR
Cloud Levels
  • Broken at 3,900' AGL
Temperature
C / 48°F
Dewpoint
C / 34°F
Humidity
58%
Altimeter
30.41" Hg
Pressure
1029.92 hPa